Terminal Aerodrome Forecast
Issued by NWS

Home | Current Version | Previous Version | Text Only | Print | Product List | Glossary On
Versions: 1 2 3 4 5 6 7 8 9 10 11 12 13 14 15 16
000
FTUS43 KAPX 231720
TAFAPN
TAF
KAPN 231720Z 2318/2418 18010G18KT P6SM BKN100
     FM240200 17008KT P6SM OVC060 WS020/19035KT
     FM240600 17007KT 4SM -FZRA OVC022 WS020/20035KT
     FM241000 18006KT 3SM -RA BR OVC012 WS020/22035KT
     FM241300 24005KT 3SM -RA BR OVC008=

USA.gov is the U.S. government's official web portal to all federal, state and local government web resources and services.